createdAt,value
2022-11-20T00:02:10.734Z,0.55
2022-11-20T00:05:12.335Z,0.50
2022-11-20T00:08:14.043Z,0.47
2022-11-20T00:11:21.024Z,0.46
2022-11-20T00:14:22.544Z,0.40
2022-11-20T00:17:24.076Z,0.41
2022-11-20T00:20:25.799Z,0.39
2022-11-20T00:23:27.327Z,0.37
2022-11-20T00:26:29.559Z,0.35
2022-11-20T00:29:31.096Z,0.25
2022-11-20T00:32:32.604Z,0.24
2022-11-20T00:35:34.129Z,0.21
2022-11-20T00:38:35.849Z,0.23
2022-11-20T00:41:37.372Z,0.27
2022-11-20T00:44:39.030Z,0.27
2022-11-20T00:47:40.539Z,0.28
2022-11-20T00:50:42.401Z,0.24
2022-11-20T00:53:44.021Z,-0.06
2022-11-20T00:56:45.551Z,0.19
2022-11-20T00:59:47.067Z,0.16
2022-11-20T01:02:48.574Z,0.13
2022-11-20T01:05:50.079Z,0.09
2022-11-20T01:08:54.305Z,-0.05
2022-11-20T01:11:57.160Z,0.04
2022-11-20T01:14:58.702Z,0.02
2022-11-20T01:18:00.233Z,-0.06
2022-11-20T01:21:08.109Z,-0.14
2022-11-20T01:24:13.509Z,-0.13
2022-11-20T01:27:15.053Z,-0.04
2022-11-20T01:30:16.590Z,-0.04
2022-11-20T01:33:18.125Z,-0.01
2022-11-20T01:36:20.935Z,-0.01
2022-11-20T01:39:25.248Z,-0.54
2022-11-20T01:42:45.418Z,0.09
2022-11-20T01:46:02.151Z,0.10
2022-11-20T01:49:06.733Z,0.14
2022-11-20T01:52:18.810Z,0.11
2022-11-20T01:55:24.844Z,0.09
2022-11-20T01:58:32.780Z,0.15
2022-11-20T02:01:34.790Z,0.17
2022-11-20T02:04:36.861Z,0.15
2022-11-20T02:07:38.893Z,0.17
2022-11-20T02:10:40.510Z,-0.15
2022-11-20T02:13:45.452Z,0.12
2022-11-20T02:16:48.533Z,0.23
2022-11-20T02:19:50.095Z,0.25
2022-11-20T02:23:05.065Z,0.29
2022-11-20T02:26:10.206Z,0.32
2022-11-20T02:29:11.762Z,0.39
2022-11-20T02:32:27.818Z,0.38
2022-11-20T02:35:29.260Z,0.06
2022-11-20T02:38:31.109Z,0.38
2022-11-20T02:41:38.097Z,0.37
2022-11-20T02:44:39.632Z,0.39
2022-11-20T02:47:41.169Z,0.38
2022-11-20T02:50:42.743Z,0.33
2022-11-20T02:53:44.286Z,0.32
2022-11-20T02:56:45.929Z,0.32
2022-11-20T02:59:47.540Z,0.13
2022-11-20T03:02:49.095Z,0.33
2022-11-20T03:05:50.731Z,0.31
2022-11-20T03:08:52.246Z,0.29
2022-11-20T03:11:53.826Z,0.28
2022-11-20T03:14:55.351Z,0.35
2022-11-20T03:17:56.926Z,0.36
2022-11-20T03:21:00.019Z,0.32
2022-11-20T03:24:02.035Z,0.35
2022-11-20T03:27:03.580Z,0.39
2022-11-20T03:30:06.449Z,0.37
2022-11-20T03:33:08.002Z,0.38
2022-11-20T03:36:12.022Z,0.39
2022-11-20T03:39:13.620Z,0.39
2022-11-20T03:42:33.545Z,0.43
2022-11-20T03:45:35.068Z,0.46
2022-11-20T03:48:36.743Z,0.47
2022-11-20T03:51:38.350Z,0.51
2022-11-20T03:54:39.887Z,0.52
2022-11-20T03:57:41.834Z,0.51
2022-11-20T04:00:43.398Z,0.51
2022-11-20T04:03:45.474Z,0.53
2022-11-20T04:06:47.072Z,0.53
2022-11-20T04:09:49.191Z,0.54
2022-11-20T04:12:50.731Z,0.55
2022-11-20T04:15:52.265Z,0.57
2022-11-20T04:18:55.579Z,0.56
2022-11-20T04:21:57.108Z,0.54
2022-11-20T04:24:58.663Z,0.54
2022-11-20T04:28:00.219Z,0.54
2022-11-20T04:31:09.959Z,0.56
2022-11-20T04:34:12.498Z,0.55
2022-11-20T04:37:14.029Z,0.57
2022-11-20T04:40:15.650Z,0.57
2022-11-20T04:43:17.173Z,0.58
2022-11-20T04:46:20.120Z,0.55
2022-11-20T04:49:22.049Z,0.61
2022-11-20T04:52:23.787Z,0.63
2022-11-20T04:55:25.303Z,0.62
2022-11-20T04:58:26.834Z,0.66
2022-11-20T05:01:28.407Z,0.66
2022-11-20T05:04:29.952Z,0.64
2022-11-20T05:07:31.518Z,0.64
2022-11-20T05:10:33.151Z,0.64
2022-11-20T05:13:34.710Z,0.64
2022-11-20T05:16:37.327Z,0.63
2022-11-20T05:19:38.911Z,0.50
2022-11-20T05:22:40.440Z,0.65
2022-11-20T05:25:41.974Z,0.63
2022-11-20T05:28:43.964Z,0.65
2022-11-20T05:31:45.482Z,0.65
2022-11-20T05:34:47.002Z,0.63
2022-11-20T05:37:48.530Z,0.63
2022-11-20T05:40:50.046Z,0.61
2022-11-20T05:43:52.015Z,0.62
2022-11-20T05:46:53.532Z,0.49
2022-11-20T05:49:55.388Z,0.65
2022-11-20T05:52:59.463Z,0.47
2022-11-20T05:56:02.592Z,0.66
2022-11-20T05:59:04.116Z,0.66
2022-11-20T06:02:05.677Z,0.65
2022-11-20T06:05:07.630Z,0.64
2022-11-20T06:08:09.153Z,0.64
2022-11-20T06:11:13.170Z,0.65
2022-11-20T06:14:14.754Z,0.64
2022-11-20T06:17:16.286Z,0.65
2022-11-20T06:20:17.835Z,0.64
2022-11-20T06:23:19.346Z,0.68
2022-11-20T06:26:23.668Z,0.68
2022-11-20T06:29:26.798Z,0.72
2022-11-20T06:32:31.560Z,0.73
2022-11-20T06:35:33.081Z,0.73
2022-11-20T06:38:34.695Z,0.63
2022-11-20T06:41:36.214Z,0.74
2022-11-20T06:44:37.790Z,0.88
2022-11-20T06:47:39.424Z,0.93
2022-11-20T06:50:40.964Z,1.01
2022-11-20T06:53:42.544Z,1.08
2022-11-20T06:56:48.366Z,1.17
2022-11-20T06:59:49.900Z,1.24
2022-11-20T07:02:51.510Z,1.30
2022-11-20T07:05:56.038Z,1.32
2022-11-20T07:08:58.121Z,1.42
2022-11-20T07:11:59.679Z,1.49
2022-11-20T07:15:01.272Z,1.49
2022-11-20T07:18:02.865Z,1.58
2022-11-20T07:21:06.431Z,1.66
2022-11-20T07:24:08.092Z,1.73
2022-11-20T07:27:09.617Z,1.83
2022-11-20T07:30:11.644Z,1.82
2022-11-20T07:33:13.182Z,1.93
2022-11-20T07:36:14.747Z,1.96
2022-11-20T07:39:16.281Z,1.79
2022-11-20T07:42:17.808Z,1.68
2022-11-20T07:45:20.132Z,1.68
2022-11-20T07:48:21.737Z,1.40
2022-11-20T07:51:23.345Z,1.60
2022-11-20T07:54:24.906Z,1.42
2022-11-20T07:57:28.424Z,1.45
2022-11-20T08:00:30.308Z,1.43
2022-11-20T08:03:31.999Z,1.47
2022-11-20T08:06:33.812Z,1.60
2022-11-20T08:09:35.386Z,1.58
2022-11-20T08:12:55.723Z,1.73
2022-11-20T08:15:57.252Z,1.69
2022-11-20T08:18:58.811Z,1.88
2022-11-20T08:22:00.367Z,1.93
2022-11-20T08:25:02.226Z,1.90
2022-11-20T08:28:18.387Z,1.92
2022-11-20T08:31:22.668Z,2.01
2022-11-20T08:34:24.256Z,2.04
2022-11-20T08:37:25.821Z,2.08
2022-11-20T08:40:27.432Z,2.37
2022-11-20T08:43:28.985Z,2.53
2022-11-20T08:46:44.879Z,2.60
2022-11-20T08:49:46.423Z,2.90
2022-11-20T08:52:48.026Z,3.15
2022-11-20T08:55:49.545Z,3.29
2022-11-20T08:59:18.323Z,3.45
2022-11-20T09:02:14.133Z,3.42
2022-11-20T09:05:15.660Z,3.48
2022-11-20T09:08:17.233Z,3.38
2022-11-20T09:11:18.977Z,3.53
2022-11-20T09:14:20.572Z,3.60
2022-11-20T09:17:22.102Z,3.70
2022-11-20T09:20:23.711Z,3.55
2022-11-20T09:23:25.480Z,3.64
2022-11-20T09:26:27.093Z,3.70
2022-11-20T09:29:28.617Z,3.65
2022-11-20T09:32:30.170Z,3.64
2022-11-20T09:35:31.694Z,3.64
2022-11-20T09:38:33.227Z,3.55
2022-11-20T09:41:59.655Z,3.65
2022-11-20T09:45:11.493Z,3.68
2022-11-20T09:48:22.156Z,3.67
2022-11-20T09:51:37.833Z,3.75
2022-11-20T09:54:40.527Z,3.87
2022-11-20T09:57:44.547Z,4.02
2022-11-20T10:00:47.143Z,3.87
2022-11-20T10:04:17.209Z,4.40
2022-11-20T10:07:33.428Z,4.64
2022-11-20T10:10:53.573Z,4.80
2022-11-20T10:14:01.466Z,5.04
2022-11-20T10:17:16.383Z,5.00
2022-11-20T10:20:23.138Z,5.07
2022-11-20T10:23:42.739Z,4.97
2022-11-20T10:26:52.299Z,4.85
2022-11-20T10:30:10.449Z,4.78
2022-11-20T10:33:18.737Z,5.01
2022-11-20T10:36:22.607Z,5.03
2022-11-20T10:39:35.130Z,4.96
2022-11-20T10:42:44.754Z,5.19
2022-11-20T10:46:06.372Z,5.19
2022-11-20T10:49:14.414Z,5.20
2022-11-20T10:52:21.887Z,5.23
2022-11-20T10:55:26.267Z,5.12
2022-11-20T10:59:03.189Z,5.06
2022-11-20T11:02:18.248Z,5.04
2022-11-20T11:05:50.108Z,5.09
2022-11-20T11:08:53.157Z,5.07
2022-11-20T11:11:54.684Z,5.07
2022-11-20T11:14:57.802Z,5.14
2022-11-20T11:17:59.407Z,5.32
2022-11-20T11:21:02.993Z,5.53
2022-11-20T11:24:26.906Z,5.58
2022-11-20T11:27:27.192Z,5.50
2022-11-20T11:30:31.244Z,5.94
2022-11-20T11:33:36.915Z,6.01
2022-11-20T11:36:38.897Z,5.96
2022-11-20T11:39:42.639Z,5.85
2022-11-20T11:42:45.575Z,5.79
2022-11-20T11:45:54.107Z,5.77
2022-11-20T11:49:05.871Z,5.76
2022-11-20T11:52:17.757Z,5.66
2022-11-20T11:55:34.863Z,5.86
2022-11-20T11:58:48.104Z,5.89
2022-11-20T12:02:04.913Z,5.83
2022-11-20T12:05:14.503Z,5.78
2022-11-20T12:08:25.888Z,5.42
2022-11-20T12:12:00.246Z,5.71
2022-11-20T12:15:02.029Z,5.78
2022-11-20T12:18:09.604Z,5.87
2022-11-20T12:21:21.305Z,5.93
2022-11-20T12:24:28.565Z,6.06
2022-11-20T12:27:58.188Z,6.05
2022-11-20T12:31:21.545Z,6.11
2022-11-20T12:34:51.017Z,6.12
2022-11-20T12:38:00.467Z,6.05
2022-11-20T12:41:51.395Z,6.08
2022-11-20T12:45:11.591Z,6.10
2022-11-20T12:48:35.146Z,6.15
2022-11-20T12:51:42.719Z,6.16
2022-11-20T12:55:04.451Z,6.18
2022-11-20T12:58:44.974Z,6.19
2022-11-20T13:01:52.445Z,6.07
2022-11-20T13:05:10.435Z,5.99
2022-11-20T13:08:36.283Z,6.05
2022-11-20T13:12:00.655Z,6.02
2022-11-20T13:15:30.342Z,6.02
2022-11-20T13:18:40.697Z,5.97
2022-11-20T13:21:47.594Z,5.94
2022-11-20T13:24:52.735Z,5.96
2022-11-20T13:27:55.538Z,5.90
2022-11-20T13:30:58.263Z,5.88
2022-11-20T13:34:01.276Z,5.84
2022-11-20T13:37:04.805Z,5.39
2022-11-20T13:40:09.425Z,5.68
2022-11-20T13:43:28.078Z,5.57
2022-11-20T13:46:42.057Z,5.44
2022-11-20T13:49:45.723Z,5.02
2022-11-20T13:52:56.292Z,5.13
2022-11-20T13:56:26.575Z,4.97
2022-11-20T13:59:39.667Z,4.82
2022-11-20T14:02:41.505Z,4.70
2022-11-20T14:06:00.987Z,4.56
2022-11-20T14:09:02.556Z,4.35
2022-11-20T14:12:05.213Z,4.41
2022-11-20T14:15:07.055Z,4.26
2022-11-20T14:18:34.907Z,4.13
2022-11-20T14:21:36.460Z,4.11
2022-11-20T14:24:38.337Z,3.99
2022-11-20T14:27:42.236Z,3.79
2022-11-20T14:30:46.163Z,3.61
2022-11-20T14:33:48.008Z,3.39
2022-11-20T14:36:50.176Z,3.29
2022-11-20T14:39:56.622Z,3.24
2022-11-20T14:42:59.683Z,3.23
2022-11-20T14:46:04.022Z,3.17
2022-11-20T14:49:06.176Z,3.35
2022-11-20T14:52:19.457Z,3.41
2022-11-20T14:55:38.285Z,3.30
2022-11-20T14:58:39.903Z,3.22
2022-11-20T15:01:59.987Z,3.04
2022-11-20T15:05:04.301Z,2.94
2022-11-20T15:08:09.419Z,2.72
2022-11-20T15:11:24.125Z,2.62
2022-11-20T15:14:27.142Z,2.41
2022-11-20T15:17:28.710Z,2.22
2022-11-20T15:20:32.803Z,2.06
2022-11-20T15:23:34.805Z,1.93
2022-11-20T15:26:36.519Z,1.75
2022-11-20T15:29:38.046Z,1.59
2022-11-20T15:32:39.605Z,1.44
2022-11-20T15:35:41.467Z,1.30
2022-11-20T15:38:43.211Z,1.21
2022-11-20T15:41:44.751Z,1.08
2022-11-20T15:44:46.268Z,1.02
2022-11-20T15:47:47.790Z,0.96
2022-11-20T15:50:49.249Z,0.96
2022-11-20T15:53:50.773Z,0.92
2022-11-20T15:56:55.160Z,0.80
2022-11-20T15:59:56.697Z,0.74
2022-11-20T16:02:58.266Z,0.66
2022-11-20T16:05:59.795Z,0.60
2022-11-20T16:09:03.704Z,0.52
2022-11-20T16:12:05.521Z,0.50
2022-11-20T16:15:27.520Z,0.51
2022-11-20T16:18:29.036Z,0.55
2022-11-20T16:21:33.567Z,0.65
2022-11-20T16:24:35.171Z,0.72
2022-11-20T16:27:36.729Z,0.78
2022-11-20T16:30:38.381Z,0.88
2022-11-20T16:33:40.628Z,0.94
2022-11-20T16:36:43.358Z,0.92
2022-11-20T16:39:44.959Z,1.17
2022-11-20T16:42:46.571Z,1.19
2022-11-20T16:45:48.088Z,1.17
2022-11-20T16:48:57.889Z,1.18
2022-11-20T16:51:59.765Z,1.09
2022-11-20T16:55:01.450Z,0.97
2022-11-20T16:58:02.983Z,0.80
2022-11-20T17:01:12.022Z,0.62
2022-11-20T17:04:13.762Z,0.44
2022-11-20T17:07:15.394Z,0.30
2022-11-20T17:10:16.977Z,0.15
2022-11-20T17:13:18.512Z,0.02
2022-11-20T17:16:22.221Z,-0.26
2022-11-20T17:19:23.728Z,-0.32
2022-11-20T17:22:25.270Z,-0.48
2022-11-20T17:25:26.911Z,-0.48
2022-11-20T17:28:28.517Z,-0.64
2022-11-20T17:31:31.097Z,-0.65
2022-11-20T17:34:32.619Z,-0.91
2022-11-20T17:37:34.181Z,-0.79
2022-11-20T17:40:35.715Z,-0.95
2022-11-20T17:43:38.114Z,-0.97
2022-11-20T17:46:39.813Z,-1.10
2022-11-20T17:49:41.347Z,-1.17
2022-11-20T17:52:42.850Z,-1.06
2022-11-20T17:56:03.057Z,-1.20
2022-11-20T17:59:06.265Z,-1.11
2022-11-20T18:02:07.912Z,-1.13
2022-11-20T18:05:09.529Z,-1.34
2022-11-20T18:08:11.110Z,-1.23
2022-11-20T18:11:17.163Z,-1.18
2022-11-20T18:14:34.836Z,-1.62
2022-11-20T18:17:36.553Z,-1.24
2022-11-20T18:20:39.948Z,-1.49
2022-11-20T18:23:41.846Z,-1.60
2022-11-20T18:26:44.687Z,-1.73
2022-11-20T18:29:48.604Z,-1.85
2022-11-20T18:32:50.278Z,-1.92
2022-11-20T18:35:52.190Z,-2.00
2022-11-20T18:38:58.538Z,-1.98
2022-11-20T18:42:18.517Z,-1.99
2022-11-20T18:45:20.054Z,-1.99
2022-11-20T18:48:21.577Z,-2.02
2022-11-20T18:51:23.107Z,-1.86
2022-11-20T18:54:25.143Z,-1.82
2022-11-20T18:57:27.962Z,-1.87
2022-11-20T19:00:29.506Z,-1.89
2022-11-20T19:03:31.104Z,-1.86
2022-11-20T19:06:32.690Z,-1.77
2022-11-20T19:09:34.292Z,-1.84
2022-11-20T19:12:35.819Z,-1.89
2022-11-20T19:15:37.753Z,-1.81
2022-11-20T19:18:39.487Z,-1.61
2022-11-20T19:21:42.214Z,-1.82
2022-11-20T19:24:43.751Z,-2.11
2022-11-20T19:27:45.282Z,-1.88
2022-11-20T19:30:46.839Z,-2.04
2022-11-20T19:33:52.369Z,-2.04
2022-11-20T19:36:54.146Z,-1.60
2022-11-20T19:39:59.022Z,-1.71
2022-11-20T19:43:00.581Z,-1.92
2022-11-20T19:46:02.560Z,-2.07
2022-11-20T19:49:05.537Z,-2.16
2022-11-20T19:52:07.139Z,-2.21
2022-11-20T19:55:10.002Z,-2.14
2022-11-20T19:58:11.546Z,-2.08
2022-11-20T20:01:18.912Z,-2.23
2022-11-20T20:04:20.515Z,-2.13
2022-11-20T20:07:22.097Z,-2.25
2022-11-20T20:10:23.675Z,-2.57
2022-11-20T20:13:28.403Z,-2.45
2022-11-20T20:16:30.178Z,-2.44
2022-11-20T20:19:31.750Z,-2.55
2022-11-20T20:22:33.309Z,-2.60
2022-11-20T20:25:38.232Z,-2.45
2022-11-20T20:28:40.305Z,-2.30
2022-11-20T20:31:42.028Z,-2.33
2022-11-20T20:34:43.560Z,-2.43
2022-11-20T20:37:45.105Z,-2.57
2022-11-20T20:40:48.969Z,-2.96
2022-11-20T20:44:09.539Z,-2.63
2022-11-20T20:47:11.135Z,-2.67
2022-11-20T20:50:13.171Z,-2.63
2022-11-20T20:53:14.785Z,-2.62
2022-11-20T20:56:17.397Z,-2.61
2022-11-20T20:59:18.931Z,-2.79
2022-11-20T21:02:20.641Z,-2.87
2022-11-20T21:05:22.239Z,-2.18
2022-11-20T21:08:25.405Z,-2.36
2022-11-20T21:11:27.273Z,-2.57
2022-11-20T21:14:28.878Z,-2.73
2022-11-20T21:17:30.400Z,-2.78
2022-11-20T21:20:50.527Z,-2.77
2022-11-20T21:23:53.439Z,-2.80
2022-11-20T21:26:56.692Z,-2.83
2022-11-20T21:29:58.210Z,-2.81
2022-11-20T21:33:02.974Z,-2.84
2022-11-20T21:36:04.736Z,-2.98
2022-11-20T21:39:06.948Z,-2.91
2022-11-20T21:42:08.541Z,-2.64
2022-11-20T21:45:10.096Z,-2.28
2022-11-20T21:48:11.629Z,-2.28
2022-11-20T21:51:21.930Z,-2.38
2022-11-20T21:54:23.764Z,-2.13
2022-11-20T21:57:25.481Z,-2.22
2022-11-20T22:00:27.064Z,-2.30
2022-11-20T22:03:28.605Z,-2.50
2022-11-20T22:06:34.867Z,-2.40
2022-11-20T22:09:36.392Z,-2.55
2022-11-20T22:12:37.961Z,-2.58
2022-11-20T22:15:59.863Z,-2.75
2022-11-20T22:19:01.339Z,-2.71
2022-11-20T22:22:02.854Z,-2.50
2022-11-20T22:25:04.659Z,-2.52
2022-11-20T22:28:06.227Z,-2.10
2022-11-20T22:31:22.762Z,-1.80
2022-11-20T22:34:24.662Z,-1.48
2022-11-20T22:37:26.462Z,-1.63
2022-11-20T22:40:27.975Z,-1.71
2022-11-20T22:43:29.764Z,-1.90
2022-11-20T22:46:33.492Z,-1.96
2022-11-20T22:49:35.018Z,-1.96
2022-11-20T22:52:36.547Z,-1.77
2022-11-20T22:55:38.340Z,-1.92
2022-11-20T22:58:41.841Z,-1.99
2022-11-20T23:01:43.630Z,-2.17
2022-11-20T23:04:45.155Z,-2.46
2022-11-20T23:07:46.702Z,-2.45
2022-11-20T23:10:48.250Z,-2.59
2022-11-20T23:13:56.039Z,-2.80
2022-11-20T23:16:57.596Z,-2.87
2022-11-20T23:19:59.149Z,-3.05
2022-11-20T23:23:00.708Z,-3.14
2022-11-20T23:26:03.958Z,-3.21
2022-11-20T23:29:05.994Z,-3.28
2022-11-20T23:32:07.575Z,-3.33
2022-11-20T23:35:09.407Z,-3.38
2022-11-20T23:38:10.957Z,-3.41
2022-11-20T23:41:13.209Z,-3.62
2022-11-20T23:44:14.733Z,-3.50
2022-11-20T23:47:16.246Z,-3.46
2022-11-20T23:50:17.848Z,-3.30
2022-11-20T23:53:19.713Z,-3.37
2022-11-20T23:56:21.271Z,-3.31
2022-11-20T23:59:22.856Z,-3.36
